createdAt,value
2023-05-10T00:00:06.024Z,5.05
2023-05-10T00:03:00.307Z,4.28
2023-05-10T00:05:28.049Z,4.68
2023-05-10T00:07:55.211Z,4.65
2023-05-10T00:10:22.828Z,4.25
2023-05-10T00:12:50.021Z,4.50
2023-05-10T00:15:17.573Z,4.40
2023-05-10T00:17:44.812Z,4.55
2023-05-10T00:20:12.564Z,4.22
2023-05-10T00:22:39.797Z,4.53
2023-05-10T00:25:08.668Z,4.80
2023-05-10T00:27:35.772Z,4.32
2023-05-10T00:30:03.398Z,5.00
2023-05-10T00:32:30.718Z,4.65
2023-05-10T00:34:59.373Z,4.43
2023-05-10T00:37:27.797Z,4.20
2023-05-10T00:39:56.167Z,4.15
2023-05-10T00:42:23.438Z,4.35
2023-05-10T00:44:53.689Z,4.43
2023-05-10T00:47:20.937Z,4.35
2023-05-10T00:49:48.652Z,4.30
2023-05-10T00:52:16.191Z,3.90
2023-05-10T00:54:43.930Z,3.83
2023-05-10T00:57:12.188Z,3.88
2023-05-10T00:59:39.640Z,3.90
2023-05-10T01:02:07.983Z,3.85
2023-05-10T01:04:36.700Z,4.07
2023-05-10T01:07:04.212Z,3.78
2023-05-10T01:09:32.651Z,3.88
2023-05-10T01:12:00.910Z,3.90
2023-05-10T01:14:31.096Z,3.75
2023-05-10T01:16:58.362Z,3.72
2023-05-10T01:19:30.496Z,3.67
2023-05-10T01:22:55.561Z,3.55
2023-05-10T01:25:45.141Z,3.28
2023-05-10T01:28:59.311Z,3.60
2023-05-10T01:31:48.332Z,3.42
2023-05-10T01:34:28.373Z,3.25
2023-05-10T01:37:11.726Z,3.42
2023-05-10T01:39:59.149Z,3.85
2023-05-10T01:42:41.940Z,3.63
2023-05-10T01:45:26.569Z,3.58
2023-05-10T01:48:15.832Z,3.38
2023-05-10T01:50:47.441Z,3.78
2023-05-10T01:53:21.377Z,3.83
2023-05-10T01:55:53.606Z,3.50
2023-05-10T01:58:34.672Z,3.55
2023-05-10T02:01:07.357Z,3.42
2023-05-10T02:03:40.670Z,3.63
2023-05-10T02:06:10.520Z,3.65
2023-05-10T02:08:40.756Z,3.35
2023-05-10T02:11:10.097Z,3.78
2023-05-10T02:13:40.355Z,3.90
2023-05-10T02:16:09.258Z,3.65
2023-05-10T02:18:37.744Z,3.30
2023-05-10T02:21:06.053Z,3.50
2023-05-10T02:23:34.943Z,3.70
2023-05-10T02:26:04.715Z,3.72
2023-05-10T02:28:33.889Z,3.70
2023-05-10T02:31:03.351Z,3.45
2023-05-10T02:33:33.030Z,4.00
2023-05-10T02:36:02.326Z,3.53
2023-05-10T02:38:33.447Z,3.63
2023-05-10T02:41:02.370Z,3.67
2023-05-10T02:43:33.224Z,3.55
2023-05-10T02:46:00.981Z,3.92
2023-05-10T02:48:29.598Z,3.88
2023-05-10T02:51:06.188Z,3.78
2023-05-10T02:53:39.578Z,3.83
2023-05-10T02:56:21.043Z,3.80
2023-05-10T02:58:48.943Z,4.28
2023-05-10T03:01:16.544Z,3.60
2023-05-10T03:03:44.047Z,3.40
2023-05-10T03:06:11.387Z,3.83
2023-05-10T03:08:39.571Z,4.07
2023-05-10T03:11:48.226Z,4.15
2023-05-10T03:14:33.972Z,4.15
2023-05-10T03:17:40.125Z,4.03
2023-05-10T03:20:17.859Z,4.47
2023-05-10T03:23:29.179Z,4.30
2023-05-10T03:25:57.432Z,4.28
2023-05-10T03:28:29.191Z,4.03
2023-05-10T03:30:58.454Z,4.05
2023-05-10T03:33:26.048Z,3.83
2023-05-10T03:35:54.277Z,4.10
2023-05-10T03:38:21.414Z,4.55
2023-05-10T03:40:48.844Z,4.25
2023-05-10T03:43:16.053Z,4.72
2023-05-10T03:45:43.572Z,4.80
2023-05-10T03:48:10.988Z,4.40
2023-05-10T03:50:38.542Z,4.25
2023-05-10T03:53:05.720Z,4.28
2023-05-10T03:55:37.001Z,4.07
2023-05-10T03:58:04.276Z,4.50
2023-05-10T04:00:32.483Z,4.95
2023-05-10T04:03:01.746Z,4.40
2023-05-10T04:05:29.611Z,4.50
2023-05-10T04:07:56.870Z,4.25
2023-05-10T04:10:24.211Z,4.70
2023-05-10T04:12:51.663Z,4.45
2023-05-10T04:15:19.350Z,4.88
2023-05-10T04:17:46.709Z,4.68
2023-05-10T04:20:14.949Z,4.72
2023-05-10T04:22:42.255Z,4.70
2023-05-10T04:25:10.255Z,4.80
2023-05-10T04:27:38.132Z,4.90
2023-05-10T04:30:06.776Z,4.38
2023-05-10T04:32:34.300Z,4.65
2023-05-10T04:35:05.698Z,4.75
2023-05-10T04:37:32.905Z,5.03
2023-05-10T04:40:00.970Z,4.50
2023-05-10T04:42:28.306Z,4.72
2023-05-10T04:44:55.790Z,4.60
2023-05-10T04:47:22.930Z,4.63
2023-05-10T04:49:50.433Z,4.55
2023-05-10T04:52:18.912Z,4.80
2023-05-10T04:54:46.432Z,4.80
2023-05-10T04:57:13.671Z,5.13
2023-05-10T04:59:40.976Z,5.57
2023-05-10T05:02:08.396Z,5.50
2023-05-10T05:04:35.835Z,5.40
2023-05-10T05:07:02.995Z,5.03
2023-05-10T05:09:30.417Z,5.78
2023-05-10T05:11:57.597Z,5.43
2023-05-10T05:14:26.328Z,5.30
2023-05-10T05:16:53.917Z,6.00
2023-05-10T05:19:21.721Z,5.80
2023-05-10T05:21:48.883Z,5.75
2023-05-10T05:24:16.262Z,5.43
2023-05-10T05:26:43.444Z,5.50
2023-05-10T05:29:10.920Z,5.40
2023-05-10T05:31:38.085Z,5.53
2023-05-10T05:34:05.599Z,5.43
2023-05-10T05:36:32.756Z,5.70
2023-05-10T05:39:00.061Z,5.72
2023-05-10T05:41:27.503Z,5.25
2023-05-10T05:43:54.969Z,4.82
2023-05-10T05:46:22.171Z,4.80
2023-05-10T05:48:49.666Z,5.00
2023-05-10T05:51:17.097Z,4.60
2023-05-10T05:53:44.277Z,4.45
2023-05-10T05:56:11.761Z,4.85
2023-05-10T05:58:38.810Z,4.53
2023-05-10T06:01:06.344Z,4.43
2023-05-10T06:03:33.794Z,4.55
2023-05-10T06:06:01.376Z,4.53
2023-05-10T06:08:28.432Z,4.20
2023-05-10T06:10:55.858Z,4.50
2023-05-10T06:13:23.063Z,3.83
2023-05-10T06:15:50.492Z,4.25
2023-05-10T06:18:17.724Z,4.28
2023-05-10T06:20:45.226Z,4.07
2023-05-10T06:23:12.353Z,3.67
2023-05-10T06:25:39.848Z,3.42
2023-05-10T06:28:07.011Z,3.88
2023-05-10T06:30:34.449Z,3.83
2023-05-10T06:33:01.774Z,3.22
2023-05-10T06:35:30.073Z,3.13
2023-05-10T06:37:57.137Z,3.30
2023-05-10T06:40:24.630Z,3.50
2023-05-10T06:42:52.150Z,3.15
2023-05-10T06:45:20.028Z,3.20
2023-05-10T06:47:47.487Z,2.78
2023-05-10T06:50:15.078Z,3.30
2023-05-10T06:52:42.262Z,3.50
2023-05-10T06:55:10.562Z,3.25
2023-05-10T06:57:37.756Z,3.00
2023-05-10T07:00:07.175Z,2.97
2023-05-10T07:02:34.564Z,3.70
2023-05-10T07:05:03.580Z,3.05
2023-05-10T07:07:31.071Z,2.78
2023-05-10T07:09:58.970Z,3.00
2023-05-10T07:12:26.431Z,2.70
2023-05-10T07:14:54.064Z,3.35
2023-05-10T07:17:21.343Z,2.65
2023-05-10T07:19:48.766Z,3.00
2023-05-10T07:22:18.740Z,2.70
2023-05-10T07:24:46.544Z,3.40
2023-05-10T07:27:14.054Z,2.60
2023-05-10T07:29:41.617Z,2.97
2023-05-10T07:32:09.014Z,3.00
2023-05-10T07:34:36.551Z,2.75
2023-05-10T07:37:03.754Z,2.58
2023-05-10T07:39:31.137Z,3.00
2023-05-10T07:41:58.394Z,3.67
2023-05-10T07:44:25.788Z,2.72
2023-05-10T07:46:53.384Z,3.13
2023-05-10T07:49:20.890Z,2.83
2023-05-10T07:51:48.131Z,2.55
2023-05-10T07:54:15.662Z,3.10
2023-05-10T07:56:46.614Z,2.70
2023-05-10T07:59:18.758Z,3.00
2023-05-10T08:01:46.243Z,2.90
2023-05-10T08:04:13.868Z,2.40
2023-05-10T08:06:41.940Z,2.50
2023-05-10T08:09:10.317Z,3.08
2023-05-10T08:11:37.612Z,2.85
2023-05-10T08:14:05.036Z,2.78
2023-05-10T08:16:33.460Z,3.10
2023-05-10T08:19:01.161Z,2.95
2023-05-10T08:21:28.495Z,2.53
2023-05-10T08:23:55.850Z,2.50
2023-05-10T08:26:23.088Z,2.78
2023-05-10T08:28:50.595Z,2.45
2023-05-10T08:31:17.892Z,2.33
2023-05-10T08:33:45.615Z,2.80
2023-05-10T08:36:15.213Z,2.53
2023-05-10T08:38:42.633Z,2.40
2023-05-10T08:41:11.602Z,2.05
2023-05-10T08:43:39.905Z,2.20
2023-05-10T08:46:10.329Z,2.13
2023-05-10T08:48:39.845Z,1.88
2023-05-10T08:51:09.112Z,2.08
2023-05-10T08:53:38.529Z,2.30
2023-05-10T08:56:06.495Z,2.05
2023-05-10T08:58:34.427Z,2.00
2023-05-10T09:01:02.353Z,1.65
2023-05-10T09:03:29.574Z,1.90
2023-05-10T09:05:57.466Z,1.83
2023-05-10T09:08:29.049Z,1.70
2023-05-10T09:10:57.441Z,1.65
2023-05-10T09:13:25.805Z,1.55
2023-05-10T09:15:54.596Z,1.52
2023-05-10T09:18:21.806Z,1.35
2023-05-10T09:20:50.366Z,1.73
2023-05-10T09:23:17.566Z,1.40
2023-05-10T09:25:45.132Z,1.48
2023-05-10T09:28:13.349Z,1.65
2023-05-10T09:30:41.271Z,1.33
2023-05-10T09:33:08.862Z,1.70
2023-05-10T09:35:37.023Z,1.25
2023-05-10T09:38:06.374Z,1.55
2023-05-10T09:40:33.899Z,1.58
2023-05-10T09:43:05.352Z,1.23
2023-05-10T09:45:38.186Z,1.45
2023-05-10T09:48:06.958Z,1.40
2023-05-10T09:50:35.249Z,1.40
2023-05-10T09:53:04.871Z,1.38
2023-05-10T09:55:50.138Z,1.52
2023-05-10T09:58:17.410Z,1.40
2023-05-10T10:00:48.645Z,1.58
2023-05-10T10:03:21.279Z,1.27
2023-05-10T10:05:49.887Z,1.35
2023-05-10T10:08:18.918Z,1.40
2023-05-10T10:10:47.795Z,1.33
2023-05-10T10:13:16.372Z,1.50
2023-05-10T10:15:45.569Z,1.42
2023-05-10T10:18:16.510Z,1.40
2023-05-10T10:20:44.371Z,1.40
2023-05-10T10:23:11.507Z,1.17
2023-05-10T10:25:39.938Z,1.33
2023-05-10T10:28:40.236Z,1.23
2023-05-10T10:31:41.759Z,1.23
2023-05-10T10:34:30.900Z,1.30
2023-05-10T10:37:04.509Z,1.10
2023-05-10T10:39:32.370Z,1.65
2023-05-10T10:42:00.889Z,1.30
2023-05-10T10:44:35.865Z,1.40
2023-05-10T10:47:12.924Z,1.38
2023-05-10T10:49:49.108Z,1.30
2023-05-10T10:52:34.134Z,1.52
2023-05-10T10:55:13.558Z,1.38
2023-05-10T10:57:49.597Z,1.42
2023-05-10T11:00:34.178Z,1.20
2023-05-10T11:03:15.745Z,1.52
2023-05-10T11:05:47.901Z,1.38
2023-05-10T11:08:31.342Z,1.30
2023-05-10T11:11:01.352Z,1.42
2023-05-10T11:13:51.128Z,1.60
2023-05-10T11:16:19.806Z,1.20
2023-05-10T11:19:04.414Z,1.40
2023-05-10T11:21:33.704Z,1.50
2023-05-10T11:24:06.817Z,1.40
2023-05-10T11:26:36.733Z,1.48
2023-05-10T11:29:05.852Z,1.60
2023-05-10T11:31:33.946Z,1.73
2023-05-10T11:34:02.822Z,1.55
2023-05-10T11:36:39.247Z,1.50
2023-05-10T11:39:07.085Z,1.50
2023-05-10T11:41:34.349Z,1.58
2023-05-10T11:44:02.726Z,1.50
2023-05-10T11:46:30.177Z,1.73
2023-05-10T11:49:05.504Z,1.70
2023-05-10T11:51:40.340Z,1.50
2023-05-10T11:54:10.643Z,1.35
2023-05-10T11:56:42.127Z,1.60
2023-05-10T11:59:09.736Z,1.73
2023-05-10T12:01:37.645Z,1.40
2023-05-10T12:04:05.480Z,1.50
2023-05-10T12:06:41.355Z,1.50
2023-05-10T12:09:09.634Z,1.42
2023-05-10T12:11:43.612Z,1.88
2023-05-10T12:14:12.250Z,1.50
2023-05-10T12:16:39.451Z,1.60
2023-05-10T12:19:06.865Z,1.70
2023-05-10T12:21:34.405Z,1.77
2023-05-10T12:24:08.103Z,1.70
2023-05-10T12:26:37.240Z,1.60
2023-05-10T12:29:21.222Z,1.33
2023-05-10T12:31:56.842Z,1.52
2023-05-10T12:34:33.867Z,1.27
2023-05-10T12:37:02.573Z,1.60
2023-05-10T12:39:43.652Z,1.60
2023-05-10T12:42:11.775Z,1.58
2023-05-10T12:44:40.797Z,1.63
2023-05-10T12:47:08.347Z,1.60
2023-05-10T12:49:35.941Z,1.40
2023-05-10T12:52:03.344Z,1.55
2023-05-10T12:54:30.879Z,1.77
2023-05-10T12:56:58.051Z,1.50
2023-05-10T12:59:25.393Z,1.50
2023-05-10T13:01:52.685Z,1.50
2023-05-10T13:04:20.151Z,1.50
2023-05-10T13:06:47.349Z,1.55
2023-05-10T13:09:14.760Z,1.60
2023-05-10T13:11:42.822Z,1.40
2023-05-10T13:14:10.384Z,1.35
2023-05-10T13:16:37.697Z,1.30
2023-05-10T13:19:05.199Z,1.48
2023-05-10T13:21:32.384Z,1.35
2023-05-10T13:24:00.982Z,1.50
2023-05-10T13:26:29.040Z,1.50
2023-05-10T13:28:56.734Z,1.60
2023-05-10T13:31:24.121Z,1.80
2023-05-10T13:33:51.996Z,1.80
2023-05-10T13:36:19.119Z,1.77
2023-05-10T13:38:46.627Z,1.90
2023-05-10T13:41:13.854Z,1.80
2023-05-10T13:43:41.330Z,1.48
2023-05-10T13:46:08.831Z,1.63
2023-05-10T13:48:39.188Z,1.30
2023-05-10T13:51:06.686Z,1.67
2023-05-10T13:53:34.321Z,1.60
2023-05-10T13:56:39.006Z,1.40
2023-05-10T13:59:06.573Z,1.52
2023-05-10T14:01:33.779Z,1.50
2023-05-10T14:04:02.588Z,1.30
2023-05-10T14:06:29.941Z,1.50
2023-05-10T14:08:57.470Z,1.73
2023-05-10T14:11:24.893Z,1.90
2023-05-10T14:13:52.398Z,1.77
2023-05-10T14:16:21.116Z,1.90
2023-05-10T14:18:48.697Z,1.80
2023-05-10T14:21:16.430Z,2.00
2023-05-10T14:23:43.861Z,1.70
2023-05-10T14:26:11.107Z,1.73
2023-05-10T14:28:38.722Z,2.00
2023-05-10T14:31:06.487Z,1.70
2023-05-10T14:33:34.053Z,1.95
2023-05-10T14:36:02.239Z,1.77
2023-05-10T14:38:29.720Z,1.67
2023-05-10T14:40:56.926Z,1.50
2023-05-10T14:43:25.784Z,1.85
2023-05-10T14:45:52.927Z,1.55
2023-05-10T14:48:22.159Z,1.98
2023-05-10T14:50:50.780Z,1.92
2023-05-10T14:53:36.639Z,1.60
2023-05-10T14:56:04.083Z,1.60
2023-05-10T14:58:33.999Z,1.63
2023-05-10T15:01:03.976Z,1.70
2023-05-10T15:03:32.161Z,1.50
2023-05-10T15:05:59.900Z,1.80
2023-05-10T15:08:27.483Z,1.85
2023-05-10T15:10:56.565Z,1.90
2023-05-10T15:13:24.098Z,1.77
2023-05-10T15:15:51.401Z,1.83
2023-05-10T15:18:18.865Z,1.92
2023-05-10T15:20:45.965Z,1.70
2023-05-10T15:23:13.572Z,1.60
2023-05-10T15:25:40.992Z,1.88
2023-05-10T15:28:08.394Z,1.70
2023-05-10T15:30:35.564Z,1.85
2023-05-10T15:33:03.244Z,1.90
2023-05-10T15:35:30.452Z,1.70
2023-05-10T15:37:57.924Z,1.80
2023-05-10T15:40:25.027Z,1.80
2023-05-10T15:42:52.388Z,1.90
2023-05-10T15:45:19.965Z,1.77
2023-05-10T15:47:47.504Z,1.70
2023-05-10T15:50:16.935Z,1.92
2023-05-10T15:52:44.329Z,1.88
2023-05-10T15:55:14.693Z,1.98
2023-05-10T15:57:44.162Z,1.70
2023-05-10T16:00:13.652Z,2.00
2023-05-10T16:02:42.033Z,1.60
2023-05-10T16:05:10.193Z,1.70
2023-05-10T16:07:37.282Z,1.65
2023-05-10T16:10:06.544Z,1.75
2023-05-10T16:12:33.848Z,1.67
2023-05-10T16:15:01.779Z,1.67
2023-05-10T16:17:29.003Z,2.00
2023-05-10T16:19:56.660Z,1.80
2023-05-10T16:22:28.683Z,1.88
2023-05-10T16:24:58.023Z,1.70
2023-05-10T16:27:28.494Z,2.03
2023-05-10T16:29:56.367Z,2.00
2023-05-10T16:32:23.683Z,2.10
2023-05-10T16:34:53.248Z,1.80
2023-05-10T16:37:20.809Z,1.70
2023-05-10T16:39:48.550Z,1.90
2023-05-10T16:42:15.666Z,1.52
2023-05-10T16:44:43.072Z,1.85
2023-05-10T16:47:10.228Z,1.73
2023-05-10T16:49:37.677Z,1.90
2023-05-10T16:52:04.939Z,1.67
2023-05-10T16:54:32.301Z,1.90
2023-05-10T16:56:59.690Z,2.00
2023-05-10T16:59:27.203Z,2.22
2023-05-10T17:01:54.968Z,1.73
2023-05-10T17:04:22.429Z,2.10
2023-05-10T17:06:49.551Z,2.20
2023-05-10T17:09:17.032Z,2.13
2023-05-10T17:11:44.087Z,1.88
2023-05-10T17:14:11.437Z,2.10
2023-05-10T17:16:38.830Z,2.00
2023-05-10T17:19:06.387Z,1.80
2023-05-10T17:21:33.497Z,1.88
2023-05-10T17:24:00.963Z,1.90
2023-05-10T17:26:29.689Z,2.10
2023-05-10T17:28:58.146Z,1.98
2023-05-10T17:31:25.330Z,2.08
2023-05-10T17:33:53.345Z,1.92
2023-05-10T17:36:20.475Z,1.73
2023-05-10T17:38:47.991Z,2.10
2023-05-10T17:41:15.238Z,2.13
2023-05-10T17:43:42.932Z,3.38
2023-05-10T17:46:12.853Z,2.63
2023-05-10T17:48:40.388Z,2.60
2023-05-10T17:51:07.644Z,2.50
2023-05-10T17:53:38.239Z,2.20
2023-05-10T17:56:05.915Z,2.40
2023-05-10T17:58:33.426Z,2.40
2023-05-10T18:01:00.806Z,2.47
2023-05-10T18:03:28.758Z,1.90
2023-05-10T18:05:56.113Z,2.53
2023-05-10T18:08:26.894Z,1.98
2023-05-10T18:10:54.373Z,2.03
2023-05-10T18:13:22.189Z,2.17
2023-05-10T18:15:49.703Z,2.22
2023-05-10T18:18:17.450Z,2.20
2023-05-10T18:20:46.202Z,2.47
2023-05-10T18:23:14.225Z,2.20
2023-05-10T18:25:41.379Z,2.38
2023-05-10T18:28:08.772Z,2.35
2023-05-10T18:30:36.000Z,2.55
2023-05-10T18:33:03.843Z,2.35
2023-05-10T18:35:31.270Z,2.67
2023-05-10T18:37:59.117Z,3.65
2023-05-10T18:40:27.618Z,3.65
2023-05-10T18:42:54.959Z,2.83
2023-05-10T18:45:22.066Z,2.50
2023-05-10T18:47:49.577Z,2.80
2023-05-10T18:50:17.627Z,2.60
2023-05-10T18:52:45.531Z,2.40
2023-05-10T18:55:12.770Z,2.40
2023-05-10T18:57:43.037Z,2.53
2023-05-10T19:00:12.381Z,2.10
2023-05-10T19:02:41.352Z,2.30
2023-05-10T19:05:09.532Z,2.58
2023-05-10T19:07:37.003Z,2.25
2023-05-10T19:10:04.718Z,2.03
2023-05-10T19:12:32.147Z,2.75
2023-05-10T19:14:59.344Z,3.15
2023-05-10T19:17:26.717Z,3.15
2023-05-10T19:19:54.341Z,2.63
2023-05-10T19:22:36.145Z,2.70
2023-05-10T19:25:09.485Z,2.53
2023-05-10T19:27:36.968Z,2.97
2023-05-10T19:30:05.322Z,3.10
2023-05-10T19:32:32.823Z,2.60
2023-05-10T19:35:00.434Z,2.92
2023-05-10T19:37:28.001Z,2.33
2023-05-10T19:39:55.330Z,3.20
2023-05-10T19:42:22.679Z,2.83
2023-05-10T19:44:50.662Z,3.00
2023-05-10T19:47:18.043Z,3.17
2023-05-10T19:49:45.379Z,2.67
2023-05-10T19:52:12.761Z,2.97
2023-05-10T19:54:39.948Z,3.30
2023-05-10T19:57:07.423Z,2.75
2023-05-10T19:59:34.569Z,3.22
2023-05-10T20:02:01.922Z,3.05
2023-05-10T20:04:29.170Z,3.78
2023-05-10T20:06:56.502Z,3.25
2023-05-10T20:09:23.693Z,3.30
2023-05-10T20:11:51.125Z,3.60
2023-05-10T20:14:18.571Z,4.30
2023-05-10T20:16:46.200Z,4.00
2023-05-10T20:19:13.558Z,4.32
2023-05-10T20:21:41.075Z,4.40
2023-05-10T20:24:09.301Z,4.32
2023-05-10T20:26:36.650Z,4.15
2023-05-10T20:29:07.382Z,4.22
2023-05-10T20:31:34.897Z,5.10
2023-05-10T20:34:02.287Z,3.92
2023-05-10T20:36:30.143Z,3.97
2023-05-10T20:38:57.237Z,4.15
2023-05-10T20:41:25.909Z,3.47
2023-05-10T20:43:53.009Z,3.65
2023-05-10T20:46:20.514Z,3.90
2023-05-10T20:48:47.588Z,4.18
2023-05-10T20:51:15.500Z,3.80
2023-05-10T20:53:42.536Z,3.88
2023-05-10T20:56:10.316Z,3.03
2023-05-10T20:58:37.412Z,3.10
2023-05-10T21:01:05.208Z,2.78
2023-05-10T21:03:32.724Z,3.47
2023-05-10T21:06:00.219Z,3.05
2023-05-10T21:08:29.265Z,3.40
2023-05-10T21:10:56.694Z,2.97
2023-05-10T21:13:23.799Z,3.20
2023-05-10T21:15:51.155Z,2.85
2023-05-10T21:18:18.390Z,3.00
2023-05-10T21:20:45.795Z,2.90
2023-05-10T21:23:12.887Z,2.90
2023-05-10T21:25:40.265Z,2.95
2023-05-10T21:28:07.522Z,3.13
2023-05-10T21:30:34.868Z,2.80
2023-05-10T21:33:03.785Z,2.90
2023-05-10T21:35:31.500Z,2.67
2023-05-10T21:37:58.568Z,2.80
2023-05-10T21:40:25.925Z,2.92
2023-05-10T21:42:53.204Z,2.67
2023-05-10T21:45:20.917Z,2.72
2023-05-10T21:47:48.124Z,2.75
2023-05-10T21:50:15.721Z,2.85
2023-05-10T21:52:42.928Z,2.63
2023-05-10T21:55:10.431Z,2.95
2023-05-10T21:57:37.455Z,2.88
2023-05-10T22:00:06.809Z,3.03
2023-05-10T22:02:33.988Z,3.10
2023-05-10T22:05:03.523Z,2.88
2023-05-10T22:07:32.092Z,2.58
2023-05-10T22:09:59.674Z,2.78
2023-05-10T22:12:26.964Z,2.92
2023-05-10T22:15:09.128Z,2.80
2023-05-10T22:20:08.418Z,3.92
2023-05-10T22:22:36.622Z,3.88
2023-05-10T22:25:07.582Z,4.18
2023-05-10T22:27:35.087Z,4.38
2023-05-10T22:30:04.095Z,3.25
2023-05-10T22:32:32.854Z,2.83
2023-05-10T22:35:00.275Z,3.17
2023-05-10T22:37:27.616Z,3.17
2023-05-10T22:39:55.355Z,2.92
2023-05-10T22:42:22.586Z,2.88
2023-05-10T22:44:49.901Z,3.00
2023-05-10T22:47:17.239Z,2.35
2023-05-10T22:49:44.568Z,2.90
2023-05-10T22:52:12.704Z,2.55
2023-05-10T22:54:40.079Z,2.75
2023-05-10T22:57:07.660Z,2.53
2023-05-10T22:59:35.063Z,2.72
2023-05-10T23:02:03.139Z,2.40
2023-05-10T23:04:30.655Z,2.50
2023-05-10T23:06:57.859Z,2.67
2023-05-10T23:09:25.290Z,2.40
2023-05-10T23:11:52.432Z,2.40
2023-05-10T23:14:19.758Z,2.60
2023-05-10T23:16:47.118Z,2.40
2023-05-10T23:19:14.557Z,2.40
2023-05-10T23:21:41.645Z,2.30
2023-05-10T23:24:09.161Z,2.25
2023-05-10T23:26:37.164Z,2.47
2023-05-10T23:29:04.587Z,2.47
2023-05-10T23:31:31.975Z,2.13
2023-05-10T23:33:59.565Z,2.17
2023-05-10T23:36:26.784Z,2.20
2023-05-10T23:38:54.123Z,2.13
2023-05-10T23:41:21.429Z,2.28
2023-05-10T23:43:48.725Z,2.47
2023-05-10T23:46:16.090Z,2.40
2023-05-10T23:48:43.457Z,2.30
2023-05-10T23:51:10.524Z,2.17
2023-05-10T23:53:37.939Z,2.10
2023-05-10T23:56:05.491Z,2.28
2023-05-10T23:58:33.018Z,2.10
